• Join FlightAware (Why Join?)
  • Login
  • US Flag 
12:41PM EDT


 

Airport Tracker/Info


-or-


 

Live Flight TrackerFlight Track Log ✈ UAL5832 ✈ 10-Apr-2013 ✈ KABE - KORD

Flight Track Log - Related Links

Times and Time Zones

All times are in EDT time to prevent confusion due to time zone crossing. See the UAL5832 flight status page for this flight to view local times or setup timezone preferences in your user account.

Time Position Orientation Groundspeed Altitude Reporting Facility
EDT Latitude Longitude Course Direction KTS MPH feet Rate Location/Type
10:31PM 40.6728 -75.4061 26° Northeast 164 189 1,800  Level New York Center
10:32PM 40.7111 -75.3814 26° Northeast 181 208 4,500 2,280 Climbing New York Center
10:33PM 40.7044 -75.4494 263° West 107 123 6,300 2,160 Climbing New York Center
10:34PM 40.6847 -75.5247 251° West 176 203 8,900 1,320 Climbing New York Center
10:35PM 40.6625 -75.6053 250° West 226 260 9,100 60 Climbing New York Center
10:36PM 40.6408 -75.6775 248° West 239 275 9,100 60 Level New York Center
10:37PM 40.6164 -75.7661 250° West 244 281 9,300 1,320 Climbing New York Center
10:38PM 40.5942 -75.8464 250° West 244 281 11,800 2,160 Climbing New York Center
10:39PM 40.5697 -75.9292 249° West 244 281 13,800 2,160 Climbing New York Center
10:40PM 40.5472 -76.0178 252° West 249 287 16,200 2,040 Climbing New York Center
10:41PM 40.5200 -76.1086 249° West 260 299 17,900 1,500 Climbing New York Center
10:42PM 40.4931 -76.1964 248° West 276 318 19,200 1,440 Climbing New York Center
10:43PM 40.4633 -76.3006 249° West 295 339 20,800 1,680 Climbing New York Center
10:44PM 40.4308 -76.4125 249° West 310 357 22,700 1,860 Climbing New York Center
10:45PM 40.4008 -76.5192 250° West 321 369 24,700 1,980 Climbing New York Center
10:46PM 40.3869 -76.6297 261° West 321 369 26,700 1,860 Climbing New York Center
10:47PM 40.3753 -76.7403 262° West 313 360 28,500 1,380 Climbing New York Center
10:48PM 40.3589 -76.8561 260° West 319 367 29,600 1,020 Climbing New York Center
10:49PM 40.3422 -76.9772 260° West 331 381 30,600 1,080 Climbing New York Center
10:50PM 40.3269 -77.1067 261° West 351 404 31,800 1,200 Climbing New York Center
10:51PM 40.3094 -77.2358 260° West 362 417 33,100 1,320 Climbing New York Center
10:52PM 40.2911 -77.3783 260° West 367 422 34,500 840 Climbing New York Center
10:54PM 40.2572 -77.6692 261° West 366 421 36,000 420 Climbing Cleveland Center
10:55PM 40.2378 -77.8089 260° West 377 434 36,000  Level Cleveland Center
10:56PM 40.2139 -77.9539 258° West 397 457 36,000  Level Cleveland Center
10:57PM 40.1944 -78.1014 260° West 404 465 36,000  Level Cleveland Center
10:58PM 40.1747 -78.2489 260° West 415 478 36,000  Level Cleveland Center
10:59PM 40.1567 -78.3908 261° West 415 478 36,000  Level Cleveland Center
11:00PM 40.1906 -78.5311 288° West 397 457 36,000  Level Cleveland Center
11:01PM 40.2344 -78.6575 294° West 391 450 36,000  Level Cleveland Center
11:02PM 40.2783 -78.7897 294° West 391 450 36,000  Level Cleveland Center
11:03PM 40.3239 -78.9219 294° West 391 450 36,000  Level Cleveland Center
11:04PM 40.3653 -79.0489 293° West 391 450 36,000  Level Cleveland Center
11:05PM 40.4108 -79.1814 294° West 391 450 36,000  Level Cleveland Center
11:06PM 40.4606 -79.3278 294° West 391 450 36,000  Level Cleveland Center
11:07PM 40.5078 -79.4661 294° West 401 461 36,000  Level Cleveland Center
11:08PM 40.5508 -79.5994 293° West 401 461 36,000  Level Cleveland Center
11:09PM 40.5956 -79.7300 294° West 395 455 36,000  Level Cleveland Center
11:10PM 40.6339 -79.8500 293° West 395 455 36,000  Level Cleveland Center
11:11PM 40.6783 -79.9808 294° West 395 455 36,000  Level Cleveland Center
11:12PM 40.7311 -80.1064 299° West 395 455 36,000  Level Cleveland Center
11:13PM 40.8025 -80.2156 311° West 395 455 36,000  Level Cleveland Center
11:14PM 40.8569 -80.3361 301° West 395 455 36,000  Level Cleveland Center
11:15PM 40.8989 -80.4678 293° West 389 448 36,000  Level Cleveland Center
11:16PM 40.9386 -80.6050 291° West 395 455 36,000  Level Cleveland Center
11:17PM 40.9758 -80.7453 289° West 401 461 36,000  Level Cleveland Center
11:18PM 41.0153 -80.8803 291° West 401 461 36,000  Level Cleveland Center
11:19PM 41.0525 -81.0128 290° West 396 456 36,000  Level Cleveland Center
11:20PM 41.0872 -81.1589 288° West 386 444 36,000  Level Cleveland Center
11:21PM 41.1094 -81.2914 283° West 379 436 36,000  Level Cleveland Center
11:22PM 41.1167 -81.4264 274° West 374 430 36,000  Level Cleveland Center
11:23PM 41.1219 -81.5478 273° West 369 425 36,000  Level Cleveland Center
11:24PM 41.1333 -81.6803 277° West 369 425 36,000  Level Cleveland Center
11:25PM 41.1403 -81.8183 274° West 369 425 36,000  Level Cleveland Center
11:26PM 41.1492 -81.9592 275° West 374 430 36,000  Level Cleveland Center
11:27PM 41.1533 -82.1219 272° West 396 456 36,000  Level Cleveland Center
11:28PM 41.1617 -82.2628 275° West 402 463 36,000  Level Cleveland Center
11:29PM 41.1678 -82.4036 273° West 397 457 36,000  Level Cleveland Center
11:30PM 41.1739 -82.5444 273° West 392 451 36,000  Level Cleveland Center
11:31PM 41.1819 -82.6856 274° West 382 440 36,000  Level Cleveland Center
11:32PM 41.1853 -82.8264 272° West 387 445 36,000  Level Cleveland Center
11:33PM 41.1908 -82.9644 273° West 387 445 36,000  Level Cleveland Center
11:34PM 41.1964 -83.0944 273° West 387 445 36,000  Level Cleveland Center
11:35PM 41.2014 -83.2492 273° West 387 445 36,000  Level Cleveland Center
11:36PM 41.2083 -83.3875 274° West 387 445 36,000  Level Cleveland Center
11:37PM 41.2153 -83.5314 274° West 387 445 36,000  Level Cleveland Center
11:38PM 41.2197 -83.6750 272° West 387 445 36,000  Level Cleveland Center
11:39PM 41.2242 -83.8189 272° West 387 445 36,000  Level Cleveland Center
11:40PM 41.2325 -83.9600 275° West 392 451 36,000  Level Cleveland Center
11:41PM 41.2367 -84.0958 272° West 387 445 36,000 -60 Level Cleveland Center
11:42PM 41.2408 -84.2339 272° West 382 440 35,900 -420 Descending Cleveland Center
11:43PM 41.2436 -84.2786 275° West 367 422 35,400 -1,260 Descending Chicago Center
11:44PM 41.2478 -84.4139 272° West 366 421 34,100 -720 Descending Chicago Center
11:45PM 41.2517 -84.5578 272° West 386 444 34,000 -60 Descending Chicago Center
11:46PM 41.2561 -84.7058 272° West 400 460 34,000  Level Chicago Center
11:47PM 41.2586 -84.8522 271° West 394 453 34,000  Level Chicago Center
11:48PM 41.2625 -84.9875 272° West 371 427 34,000  Level Chicago Center
11:49PM 41.2644 -85.1339 271° West 334 384 34,000  Level Chicago Center
11:50PM 41.2678 -85.2542 272° West 326 375 34,000 -840 Level Chicago Center
11:51PM 41.2483 -85.3756 258° West 333 383 32,400 -2,040 Descending Chicago Center
11:52PM 41.2322 -85.4975 260° West 333 383 29,900 -2,460 Descending Chicago Center
11:53PM 41.2389 -85.6228 274° West 343 395 27,400 -2,520 Descending Chicago Center
11:54PM 41.2617 -85.7453 284° West 340 391 24,800 -1,680 Descending Chicago Center
11:55PM 41.2836 -85.8656 284° West 336 387 24,000 -420 Descending Chicago Center
11:56PM 41.3061 -85.9883 284° West 339 390 24,000  Level Chicago Center
11:57PM 41.3283 -86.1133 283° West 345 397 24,000 -540 Level Chicago Center
11:58PM 41.3506 -86.2328 284° West 334 384 23,000 -1,260 Descending Chicago Center
11:59PM 41.3731 -86.3561 284° West 341 392 21,500 -1,440 Descending Chicago Center
12:00AM 41.3956 -86.4789 284° West 343 395 20,100 -780 Descending Chicago Center
12:01AM 41.4169 -86.6025 283° West 342 394 20,000 -60 Descending Chicago Center
12:02AM 41.4403 -86.7342 283° West 352 405 20,000 -1,200 Level Chicago Center
12:03AM 41.4619 -86.8558 283° West 343 395 17,600 -2,580 Descending Chicago Center
12:04AM 41.4878 -87.0000 283° West 335 386 14,800 -2,820 Descending Chicago Center
12:05AM 41.5167 -87.1333 286° West 319 367 11,700 -1,920 Descending Chicago TRACON
12:06AM 41.5500 -87.2167 298° West 312 359 11,000 -360 Descending Chicago TRACON
12:07AM 41.6167 -87.3000 317° Northwest 297 342 11,000  Level Chicago TRACON
12:08AM 41.6564 -87.3789 304° West 299 344 11,000  Level Chicago Center
12:09AM 41.7125 -87.4569 314° West 296 341 11,000 -780 Level Chicago Center
12:10AM 41.7608 -87.5419 307° West 290 334 9,500 -1,680 Descending Chicago Center
12:11AM 41.8000 -87.6333 300° West 272 313 7,800 -1,260 Descending Chicago TRACON
12:12AM 41.8333 -87.7167 298° West 242 278 7,100 -360 Descending Chicago TRACON
12:13AM 41.8833 -87.7833 315° West 235 270 7,100  Level Chicago TRACON
12:14AM 41.8833 -87.8667 270° West 235 270 7,100  Level Chicago TRACON
12:15AM 41.8833 -87.9500 270° West 234 269 7,100  Level Chicago TRACON
12:16AM 41.8833 -88.0333 270° West 231 266 7,100  Level Chicago TRACON
12:17AM 41.8833 -88.1333 270° West 226 260 7,100 -120 Level Chicago TRACON
12:18AM 41.8833 -88.2000 270° West 197 227 6,900 -540 Descending Chicago TRACON
12:19AM 41.8833 -88.2833 270° West 237 273 6,100 -420 Descending Chicago TRACON
12:20AM 41.8833 -88.3500 270° West 185 213 6,100 -240 Level Chicago TRACON
12:21AM 41.9333 -88.3500 360° North 186 214 5,600 -540 Descending Chicago TRACON
12:22AM 41.9667 -88.3167 37° Northeast 196 226 5,100 -540 Descending Chicago TRACON
12:22AM 41.9667 -88.2992 90° East 201 231 5,000 -120 Descending Chicago Center
12:23AM 41.9675 -88.2322 89° East 184 212 5,000 -420 Level Chicago Center
12:24AM 41.9669 -88.1661 91° East 179 206 4,200 -840 Descending Chicago Center
12:25AM 41.9667 -88.1167 90° East 161 185 3,500 -840 Descending Chicago TRACON
12:26AM 41.9667 -88.0667 90° East 138 159 2,700 -780 Descending Chicago TRACON
12:27AM 41.9667 -88.0167 90° East 125 144 2,100 -660 Descending Chicago TRACON
12:28AM 41.9667 -87.9833 90° East 113 130 1,500 -600 Descending Chicago TRACON